createdAt,value
2022-10-01T00:00:09.025Z,21.90
2022-10-01T00:03:50.914Z,24.50
2022-10-01T00:07:41.506Z,20.07
2022-10-01T00:11:26.626Z,28.10
2022-10-01T00:15:13.323Z,31.87
2022-10-01T00:18:56.183Z,34.27
2022-10-01T00:22:38.076Z,38.27
2022-10-01T00:26:22.708Z,30.00
2022-10-01T00:30:06.517Z,27.17
2022-10-01T00:33:48.977Z,28.73
2022-10-01T00:37:31.144Z,28.97
2022-10-01T00:41:13.030Z,29.60
2022-10-01T00:44:54.954Z,27.27
2022-10-01T00:48:50.662Z,29.23
2022-10-01T00:52:34.373Z,28.50
2022-10-01T00:56:16.252Z,26.63
2022-10-01T01:00:01.567Z,24.27
2022-10-01T01:03:43.544Z,33.17
2022-10-01T01:07:27.308Z,30.90
2022-10-01T01:11:33.281Z,36.80
2022-10-01T01:15:39.868Z,35.40
2022-10-01T01:19:33.039Z,31.85
2022-10-01T01:23:14.845Z,21.70
2022-10-01T01:27:06.374Z,35.07
2022-10-01T01:30:50.201Z,27.83
2022-10-01T01:34:34.993Z,33.00
2022-10-01T01:38:22.886Z,30.00
2022-10-01T01:42:10.138Z,29.67
2022-10-01T01:45:55.286Z,34.50
2022-10-01T01:49:39.496Z,29.87
2022-10-01T01:53:21.747Z,29.53
2022-10-01T01:57:04.627Z,24.47
2022-10-01T02:00:52.392Z,26.30
2022-10-01T02:04:59.508Z,22.00
2022-10-01T02:09:05.768Z,29.07
2022-10-01T02:12:50.383Z,23.25
2022-10-01T02:16:35.377Z,21.63
2022-10-01T02:20:31.147Z,29.93
2022-10-01T02:24:30.998Z,30.08
2022-10-01T02:28:19.045Z,25.53
2022-10-01T02:32:02.341Z,25.13
2022-10-01T02:35:46.769Z,18.60
2022-10-01T02:39:31.549Z,19.67
2022-10-01T02:43:23.616Z,21.87
2022-10-01T02:47:17.175Z,20.10
2022-10-01T02:51:36.642Z,23.00
2022-10-01T02:55:26.181Z,22.53
2022-10-01T02:59:08.910Z,23.87
2022-10-01T03:02:50.785Z,22.03
2022-10-01T03:06:36.134Z,28.23
2022-10-01T03:10:18.202Z,22.00
2022-10-01T03:14:01.164Z,24.17
2022-10-01T03:17:43.292Z,24.13
2022-10-01T03:21:25.162Z,23.57
2022-10-01T03:25:07.300Z,17.33
2022-10-01T03:28:49.250Z,20.67
2022-10-01T03:32:31.215Z,25.93
2022-10-01T03:36:13.119Z,17.73
2022-10-01T03:39:54.930Z,27.27
2022-10-01T03:43:36.886Z,23.77
2022-10-01T03:47:18.727Z,18.43
2022-10-01T03:51:00.988Z,27.23
2022-10-01T03:54:42.841Z,21.23
2022-10-01T03:58:25.447Z,25.10
2022-10-01T04:02:08.181Z,18.57
2022-10-01T04:05:50.490Z,17.33
2022-10-01T04:09:32.596Z,27.57
2022-10-01T04:13:14.514Z,17.80
2022-10-01T04:16:56.377Z,17.60
2022-10-01T04:20:38.578Z,17.93
2022-10-01T04:24:20.472Z,20.40
2022-10-01T04:28:05.626Z,18.13
2022-10-01T04:31:47.658Z,22.87
2022-10-01T04:35:29.892Z,16.20
2022-10-01T04:39:11.708Z,19.53
2022-10-01T04:42:53.646Z,14.20
2022-10-01T04:46:35.865Z,15.80
2022-10-01T04:50:18.987Z,14.83
2022-10-01T04:54:01.026Z,15.33
2022-10-01T04:57:44.145Z,19.83
2022-10-01T05:01:26.173Z,15.07
2022-10-01T05:05:08.529Z,15.20
2022-10-01T05:08:52.204Z,16.77
2022-10-01T05:12:35.281Z,17.70
2022-10-01T05:16:17.686Z,18.87
2022-10-01T05:19:59.721Z,12.70
2022-10-01T05:23:42.176Z,18.27
2022-10-01T05:27:24.030Z,16.93
2022-10-01T05:31:06.105Z,17.57
2022-10-01T05:34:52.742Z,25.40
2022-10-01T05:38:37.398Z,16.07
2022-10-01T05:42:19.318Z,18.43
2022-10-01T05:46:02.207Z,16.67
2022-10-01T05:49:44.866Z,21.00
2022-10-01T05:53:27.200Z,25.57
2022-10-01T05:57:09.505Z,22.40
2022-10-01T06:00:51.361Z,26.53
2022-10-01T06:04:36.656Z,17.87
2022-10-01T06:08:21.963Z,16.00
2022-10-01T06:12:10.494Z,22.80
2022-10-01T06:15:53.087Z,25.53
2022-10-01T06:19:34.972Z,22.77
2022-10-01T06:23:17.212Z,15.80
2022-10-01T06:26:59.261Z,15.60
2022-10-01T06:30:41.418Z,24.07
2022-10-01T06:34:23.410Z,17.93
2022-10-01T06:38:06.286Z,25.57
2022-10-01T06:41:48.850Z,27.10
2022-10-01T06:45:31.448Z,20.57
2022-10-01T06:49:13.945Z,28.63
2022-10-01T06:52:57.080Z,19.20
2022-10-01T06:56:38.975Z,25.43
2022-10-01T07:00:20.835Z,26.90
2022-10-01T07:04:03.749Z,18.83
2022-10-01T07:07:45.881Z,19.47
2022-10-01T07:11:28.077Z,25.17
2022-10-01T07:15:10.085Z,20.27
2022-10-01T07:18:52.531Z,22.33
2022-10-01T07:22:34.446Z,22.17
2022-10-01T07:26:16.510Z,16.67
2022-10-01T07:29:59.286Z,31.60
2022-10-01T07:33:41.751Z,23.20
2022-10-01T07:37:23.820Z,30.97
2022-10-01T07:41:06.266Z,17.27
2022-10-01T07:44:49.872Z,23.23
2022-10-01T07:48:31.831Z,28.48
2022-10-01T07:52:13.758Z,19.50
2022-10-01T07:55:56.247Z,23.98
2022-10-01T07:59:39.412Z,21.30
2022-10-01T08:03:21.344Z,21.08
2022-10-01T08:07:03.244Z,18.15
2022-10-01T08:10:45.173Z,18.60
2022-10-01T08:14:28.818Z,12.25
2022-10-01T08:18:11.642Z,14.40
2022-10-01T08:21:53.712Z,13.07
2022-10-01T08:25:35.796Z,13.93
2022-10-01T08:29:17.938Z,16.65
2022-10-01T08:33:04.095Z,21.08
2022-10-01T08:40:28.242Z,17.88
2022-10-01T08:44:18.252Z,21.65
2022-10-01T08:48:05.664Z,16.52
2022-10-01T08:52:03.862Z,17.42
2022-10-01T08:55:47.715Z,20.17
2022-10-01T08:59:40.577Z,15.45
2022-10-01T09:03:22.498Z,19.45
2022-10-01T09:07:37.945Z,18.52
2022-10-01T09:11:43.727Z,16.88
2022-10-01T09:15:33.851Z,24.23
2022-10-01T09:19:42.809Z,16.70
2022-10-01T09:23:32.134Z,20.65
2022-10-01T09:27:19.774Z,24.05
2022-10-01T09:31:20.254Z,19.80
2022-10-01T09:35:12.982Z,17.25
2022-10-01T09:39:21.962Z,19.45
2022-10-01T09:43:06.404Z,17.75
2022-10-01T09:46:48.441Z,20.38
2022-10-01T09:50:41.409Z,18.65
2022-10-01T09:54:53.922Z,25.42
2022-10-01T09:58:40.449Z,20.92
2022-10-01T10:02:34.183Z,24.13
2022-10-01T10:06:16.261Z,24.73
2022-10-01T10:10:25.363Z,27.30
2022-10-01T10:14:20.989Z,22.13
2022-10-01T10:18:13.182Z,22.77
2022-10-01T10:22:01.115Z,24.55
2022-10-01T10:25:43.511Z,20.48
2022-10-01T10:29:37.551Z,19.27
2022-10-01T10:33:21.960Z,13.68
2022-10-01T10:37:07.080Z,16.75
2022-10-01T10:40:59.773Z,15.32
2022-10-01T10:44:49.373Z,14.95
2022-10-01T10:48:36.602Z,14.38
2022-10-01T10:52:24.569Z,13.57
2022-10-01T10:56:15.140Z,11.13
2022-10-01T11:00:01.240Z,16.10
2022-10-01T11:03:53.571Z,13.85
2022-10-01T11:07:36.294Z,19.25
2022-10-01T11:11:55.094Z,13.57
2022-10-01T11:16:04.655Z,20.15
2022-10-01T11:20:10.840Z,13.88
2022-10-01T11:24:10.670Z,17.67
2022-10-01T11:28:14.368Z,15.27
2022-10-01T11:32:05.782Z,16.17
2022-10-01T11:36:03.069Z,13.48
2022-10-01T11:39:47.890Z,10.65
2022-10-01T11:44:08.690Z,8.23
2022-10-01T11:47:59.001Z,11.70
2022-10-01T11:51:53.158Z,9.55
2022-10-01T11:56:14.377Z,9.40
2022-10-01T12:00:10.928Z,6.65
2022-10-01T12:03:52.768Z,8.18
2022-10-01T12:08:09.370Z,9.40
2022-10-01T12:12:03.796Z,10.80
2022-10-01T12:16:10.460Z,13.77
2022-10-01T12:19:56.030Z,10.30
2022-10-01T12:23:51.069Z,8.55
2022-10-01T12:27:44.360Z,13.63
2022-10-01T12:31:42.417Z,9.05
2022-10-01T12:35:47.647Z,12.23
2022-10-01T12:40:03.572Z,11.75
2022-10-01T12:47:56.921Z,9.70
2022-10-01T12:51:45.677Z,7.88
2022-10-01T12:55:56.060Z,9.52
2022-10-01T12:59:44.824Z,7.00
2022-10-01T13:03:29.741Z,9.88
2022-10-01T13:07:46.808Z,11.88
2022-10-01T13:11:47.441Z,7.28
2022-10-01T13:15:35.180Z,8.00
2022-10-01T13:19:54.849Z,13.93
2022-10-01T13:24:04.644Z,9.85
2022-10-01T13:27:56.967Z,11.63
2022-10-01T13:31:59.783Z,13.73
2022-10-01T13:35:42.188Z,9.07
2022-10-01T13:39:24.788Z,11.70
2022-10-01T13:43:19.122Z,12.75
2022-10-01T13:47:07.435Z,11.90
2022-10-01T13:51:13.048Z,10.30
2022-10-01T13:54:56.569Z,14.32
2022-10-01T13:58:40.134Z,14.07
2022-10-01T14:02:40.031Z,13.73
2022-10-01T14:06:32.745Z,12.40
2022-10-01T14:10:19.960Z,8.73
2022-10-01T14:14:47.229Z,7.68
2022-10-01T14:18:38.086Z,11.93
2022-10-01T14:22:35.546Z,7.68
2022-10-01T14:26:48.267Z,12.15
2022-10-01T14:30:44.138Z,13.80
2022-10-01T14:34:55.322Z,13.20
2022-10-01T14:38:37.446Z,15.45
2022-10-01T14:42:19.559Z,15.25
2022-10-01T14:46:06.573Z,11.40
2022-10-01T14:49:50.118Z,13.63
2022-10-01T14:53:38.129Z,10.20
2022-10-01T14:57:29.328Z,14.05
2022-10-01T15:01:20.273Z,14.55
2022-10-01T15:05:02.367Z,8.90
2022-10-01T15:08:47.970Z,12.40
2022-10-01T15:12:30.026Z,14.10
2022-10-01T15:16:27.560Z,12.80
2022-10-01T15:20:12.385Z,11.20
2022-10-01T15:23:54.602Z,16.20
2022-10-01T15:27:36.568Z,10.18
2022-10-01T15:31:21.682Z,21.10
2022-10-01T15:35:03.900Z,18.85
2022-10-01T15:38:47.712Z,15.73
2022-10-01T15:42:37.172Z,16.60
2022-10-01T15:46:29.203Z,12.88
2022-10-01T15:50:11.192Z,10.13
2022-10-01T15:53:54.176Z,17.65
2022-10-01T15:57:38.846Z,16.25
2022-10-01T16:01:27.824Z,20.83
2022-10-01T16:05:18.291Z,20.95
2022-10-01T16:09:50.639Z,13.73
2022-10-01T16:13:38.544Z,15.85
2022-10-01T16:17:21.675Z,19.52
2022-10-01T16:21:06.173Z,15.48
2022-10-01T16:24:54.440Z,14.75
2022-10-01T16:28:36.679Z,13.63
2022-10-01T16:32:18.763Z,13.77
2022-10-01T16:36:11.043Z,15.88
2022-10-01T16:39:53.114Z,18.52
2022-10-01T16:43:34.918Z,13.80
2022-10-01T16:47:17.946Z,12.48
2022-10-01T16:50:59.900Z,14.35
2022-10-01T16:54:41.854Z,14.82
2022-10-01T16:58:24.279Z,27.55
2022-10-01T17:02:14.092Z,19.77
2022-10-01T17:05:55.940Z,16.63
2022-10-01T17:09:37.845Z,11.13
2022-10-01T17:13:19.836Z,16.73
2022-10-01T17:17:01.735Z,12.20
2022-10-01T17:20:43.683Z,10.90
2022-10-01T17:24:26.661Z,9.20
2022-10-01T17:28:12.225Z,15.70
2022-10-01T17:31:54.397Z,15.95
2022-10-01T17:35:44.635Z,16.67
2022-10-01T17:39:33.988Z,11.15
2022-10-01T17:43:17.316Z,14.23
2022-10-01T17:46:59.186Z,12.40
2022-10-01T17:50:45.134Z,11.15
2022-10-01T17:54:27.125Z,11.23
2022-10-01T17:58:10.019Z,13.95
2022-10-01T18:01:53.347Z,9.82
2022-10-01T18:05:35.560Z,9.90
2022-10-01T18:09:17.710Z,11.05
2022-10-01T18:13:00.087Z,8.20
2022-10-01T18:16:42.150Z,11.18
2022-10-01T18:20:24.409Z,11.93
2022-10-01T18:24:07.114Z,14.40
2022-10-01T18:27:52.681Z,11.18
2022-10-01T18:31:40.804Z,12.07
2022-10-01T18:35:34.455Z,11.55
2022-10-01T18:39:53.925Z,13.07
2022-10-01T18:43:38.676Z,10.80
2022-10-01T18:47:23.357Z,12.98
2022-10-01T18:51:33.821Z,11.93
2022-10-01T18:55:34.978Z,11.25
2022-10-01T18:59:35.835Z,14.35
2022-10-01T19:03:36.123Z,12.52
2022-10-01T19:07:38.246Z,14.57
2022-10-01T19:12:02.070Z,13.27
2022-10-01T19:16:00.534Z,13.55
2022-10-01T19:20:13.746Z,13.27
2022-10-01T19:24:09.765Z,13.85
2022-10-01T19:28:19.250Z,18.08
2022-10-01T19:32:23.065Z,15.98
2022-10-01T19:36:07.228Z,15.05
2022-10-01T19:39:51.710Z,12.85
2022-10-01T19:43:39.832Z,13.32
2022-10-01T19:47:47.061Z,22.70
2022-10-01T19:51:33.732Z,23.02
2022-10-01T19:55:17.351Z,18.85
2022-10-01T19:59:20.359Z,21.88
2022-10-01T20:03:56.925Z,14.73
2022-10-01T20:08:08.073Z,17.52
2022-10-01T20:12:16.492Z,22.45
2022-10-01T20:16:35.372Z,13.18
2022-10-01T20:20:22.370Z,17.88
2022-10-01T20:24:48.068Z,17.20
2022-10-01T20:28:52.099Z,14.82
2022-10-01T20:32:59.176Z,24.27
2022-10-01T20:36:55.825Z,14.63
2022-10-01T20:40:58.160Z,15.18
2022-10-01T20:44:40.508Z,14.48
2022-10-01T20:48:32.371Z,21.60
2022-10-01T20:52:58.992Z,18.23
2022-10-01T20:56:54.902Z,26.27
2022-10-01T21:00:38.508Z,18.08
2022-10-01T21:04:26.332Z,17.52
2022-10-01T21:08:32.856Z,14.70
2022-10-01T21:12:39.696Z,15.98
2022-10-01T21:20:28.347Z,15.13
2022-10-01T21:24:46.183Z,14.15
2022-10-01T21:28:54.370Z,14.20
2022-10-01T21:33:06.655Z,20.85
2022-10-01T21:37:12.278Z,13.60
2022-10-01T21:41:06.212Z,17.20
2022-10-01T21:44:57.406Z,20.98
2022-10-01T21:49:05.681Z,19.33
2022-10-01T21:53:18.721Z,20.45
2022-10-01T21:57:28.024Z,15.80
2022-10-01T22:01:22.431Z,14.82
2022-10-01T22:05:11.708Z,17.85
2022-10-01T22:09:18.028Z,17.75
2022-10-01T22:13:04.433Z,20.83
2022-10-01T22:16:50.458Z,19.20
2022-10-01T22:20:35.460Z,16.77
2022-10-01T22:24:25.160Z,16.88
2022-10-01T22:28:25.610Z,18.52
2022-10-01T22:32:11.123Z,15.45
2022-10-01T22:36:14.047Z,20.33
2022-10-01T22:40:05.359Z,18.43
2022-10-01T22:43:48.031Z,15.85
2022-10-01T22:47:49.695Z,18.38
2022-10-01T22:51:43.596Z,14.93
2022-10-01T22:55:48.433Z,14.75
2022-10-01T23:00:07.810Z,9.33
2022-10-01T23:04:02.183Z,11.77
2022-10-01T23:08:15.147Z,15.47
2022-10-01T23:12:03.747Z,11.03
2022-10-01T23:15:49.226Z,9.47
2022-10-01T23:20:10.077Z,11.75
2022-10-01T23:24:14.046Z,15.33
2022-10-01T23:27:59.730Z,12.93
2022-10-01T23:32:16.483Z,17.80
2022-10-01T23:36:22.955Z,11.05
2022-10-01T23:40:10.021Z,16.00
2022-10-01T23:44:00.036Z,11.23
2022-10-01T23:48:04.159Z,10.03
2022-10-01T23:52:24.720Z,11.33
2022-10-01T23:56:38.090Z,13.60
